메인 페이지
METAR-TAF:

METAR-TAF

공항 :

머세드, 캘리포니아, 미국

위도: 37-22N, 경도: 120-34W, 고도: 57m

현재 날씨관측

예보는 12 시간 9분 전, 18:55시(UTC)에 발표되었습니다.
6kt
온도 28°C
습도 28%
기압 1010 hPa
시정: 16.1km
맑음

METAR: KMER 201855Z 35006KT 10SM CLR 28/08 A2982

시각: 00:04 (07:04 UTC)

예보

예보는 1 시간 44분 전, 05:20시(UTC)에 발표되었습니다.
예보 대상 시간: 21일 06시부터 22일 06시까지 (UTC)
북서8kt
시정: 10km
맑음

TAF: KMER 210520Z 2106/2206 32008KT P6SM SKC

4,000개 이상의 공항 관측 자료 및 예보 (METAR 및 TAF 보고).

지도상에서 검색 가능한 기상관측소가 노란 점과 빨간 점으로 표시되어 있습니다.

기상관측소 명을 보려면 표시 위로 마우스를 이동하세요.

날씨 관측과 예보를 보려면 클릭하세요.

지도 변경 : 확대하려면 엑스 표시가 있는 녹색 버튼, 축소하려면 빼기 표시가 있는 녹색 버튼, 다음 페이지의 지도를 보려면 녹색 화살표를 클릭하세요.


METAR-TAF: